Time;durP1;ratioP1;P1;durP2;ratioP2;P2;SDS_P1;SDS_P2;PMS_P1;PMS_P2;Temp;Humidity;BMP_temperature;BMP_pressure;BME280_temperature;BME280_humidity;BME280_pressure;Samples;Min_cycle;Max_cycle;Signal;HPM_P1;HPM_P2
2022/05/18 00:02:11;;;;;;;7.55;4.72;;;;;;;19.09;68.13;101185.66;4938486;29;20082;-80
2022/05/18 00:04:38;;;;;;;7.00;4.50;;;;;;;19.06;68.35;101191.38;4939189;29;20130;-79
2022/05/18 00:07:05;;;;;;;7.00;4.53;;;;;;;19.00;68.61;101186.84;4938481;29;20086;-79
2022/05/18 00:09:31;;;;;;;5.50;4.75;;;;;;;18.98;68.67;101193.38;4937687;29;20051;-80
2022/05/18 00:11:59;;;;;;;5.75;4.45;;;;;;;18.93;68.94;101187.81;4939563;29;20144;-80
2022/05/18 00:14:26;;;;;;;6.50;4.30;;;;;;;18.86;69.33;101195.78;4941853;29;20143;-79
2022/05/18 00:16:52;;;;;;;8.70;5.55;;;;;;;18.79;69.37;101198.38;4939989;29;20102;-79
2022/05/18 00:19:19;;;;;;;6.13;4.50;;;;;;;18.82;69.42;101191.88;4939363;29;20055;-79
2022/05/18 00:21:46;;;;;;;7.35;4.57;;;;;;;18.77;69.61;101194.28;4941711;29;20131;-80
2022/05/18 00:24:13;;;;;;;5.57;4.30;;;;;;;18.70;69.94;101198.75;4941115;29;20051;-79
2022/05/18 00:26:40;;;;;;;4.85;4.35;;;;;;;18.65;70.25;101201.97;4941664;29;20130;-80
2022/05/18 00:29:08;;;;;;;7.75;4.55;;;;;;;18.64;70.27;101208.28;4940801;29;20083;-79
2022/05/18 00:31:34;;;;;;;9.18;4.63;;;;;;;18.63;70.12;101211.94;4941460;29;20515;-80
2022/05/18 00:34:01;;;;;;;7.03;4.70;;;;;;;18.61;70.49;101211.31;4941885;29;20135;-80
2022/05/18 00:36:27;;;;;;;9.00;4.93;;;;;;;18.64;70.33;101207.47;4940407;29;20135;-79
2022/05/18 00:38:54;;;;;;;10.38;4.70;;;;;;;18.68;70.20;101212.19;4940558;29;20058;-79
2022/05/18 00:41:23;;;;;;;6.25;4.65;;;;;;;18.60;70.31;101212.34;4940976;29;20107;-79
2022/05/18 00:43:51;;;;;;;7.00;4.72;;;;;;;18.53;70.31;101201.66;4941567;29;20107;-79
2022/05/18 00:46:19;;;;;;;6.25;4.55;;;;;;;18.54;70.77;101203.28;4940276;29;20143;-78
2022/05/18 00:48:45;;;;;;;9.00;4.90;;;;;;;18.47;71.15;101214.88;4940218;29;20103;-80
2022/05/18 00:51:18;;;;;;;6.88;4.70;;;;;;;18.44;71.11;101215.25;4940584;29;20050;-80
2022/05/18 00:53:48;;;;;;;8.75;4.85;;;;;;;18.45;70.94;101209.75;4939067;29;20062;-78
2022/05/18 00:56:18;;;;;;;7.03;4.75;;;;;;;18.40;71.22;101208.72;4939997;29;20111;-79
2022/05/18 00:58:50;;;;;;;7.55;5.15;;;;;;;18.36;71.53;101218.06;4939704;29;20058;-79
2022/05/18 01:01:18;;;;;;;6.97;4.82;;;;;;;18.37;71.45;101215.22;4940795;29;20474;-79
2022/05/18 01:03:50;;;;;;;5.60;4.68;;;;;;;18.32;71.72;101220.28;4943599;29;20107;-78
2022/05/18 01:06:24;;;;;;;11.18;5.88;;;;;;;18.31;71.94;101221.28;4946154;29;20126;-78
2022/05/18 01:08:58;;;;;;;9.35;5.05;;;;;;;18.32;72.01;101222.09;4944816;29;20083;-78
2022/05/18 01:11:25;;;;;;;8.40;5.18;;;;;;;18.30;71.98;101221.47;4940601;29;20131;-79
2022/05/18 01:13:52;;;;;;;8.63;5.20;;;;;;;18.23;72.33;101230.19;4940409;29;20052;-79
2022/05/18 01:16:21;;;;;;;7.28;5.20;;;;;;;18.22;72.46;101233.03;4940459;29;20127;-79
2022/05/18 01:18:49;;;;;;;6.80;4.68;;;;;;;18.26;72.44;101234.28;4941764;29;20115;-81
2022/05/18 01:21:16;;;;;;;7.30;5.05;;;;;;;18.18;72.69;101237.88;4943984;29;20107;-80
2022/05/18 01:23:53;;;;;;;7.70;4.95;;;;;;;18.14;72.59;101241.09;4943376;29;20079;-79
2022/05/18 01:26:32;;;;;;;11.55;5.60;;;;;;;18.06;72.89;101234.13;4943594;29;20143;-82
2022/05/18 01:29:01;;;;;;;8.63;5.38;;;;;;;18.01;73.27;101236.50;4943718;29;20058;-81
2022/05/18 01:31:48;;;;;;;6.68;5.05;;;;;;;17.96;73.41;101244.19;4944641;29;20103;-79
2022/05/18 01:34:17;;;;;;;7.57;5.35;;;;;;;17.90;73.65;101244.97;4943118;29;20131;-79
2022/05/18 01:36:44;;;;;;;9.18;5.05;;;;;;;17.91;73.67;101241.31;4942680;29;20083;-80
2022/05/18 01:39:16;;;;;;;7.55;5.10;;;;;;;17.82;74.03;101242.44;4943747;29;20054;-80
2022/05/18 01:41:52;;;;;;;6.55;5.32;;;;;;;17.75;74.55;101238.91;4951032;29;20075;-80
2022/05/18 01:44:19;;;;;;;7.78;5.38;;;;;;;17.69;74.84;101237.00;4956517;29;20073;-79
2022/05/18 01:46:48;;;;;;;7.57;5.57;;;;;;;17.60;75.14;101233.63;4956075;29;20075;-77
2022/05/18 01:49:15;;;;;;;14.07;6.22;;;;;;;17.55;75.46;101230.72;4952734;29;20086;-78
2022/05/18 01:51:45;;;;;;;10.13;5.82;;;;;;;17.49;75.59;101227.00;4948673;29;20511;-78
2022/05/18 01:54:13;;;;;;;8.50;5.93;;;;;;;17.49;75.48;101229.63;4950797;29;20123;-78
2022/05/18 01:56:40;;;;;;;12.52;6.15;;;;;;;17.48;75.60;101235.16;4953479;29;20086;-78
2022/05/18 01:59:08;;;;;;;9.32;5.75;;;;;;;17.48;75.54;101241.25;4951423;29;20075;-77
2022/05/18 02:01:35;;;;;;;9.38;5.75;;;;;;;17.45;75.55;101246.91;4943092;29;20110;-78
2022/05/18 02:04:02;;;;;;;10.18;5.40;;;;;;;17.45;75.65;101246.09;4936386;29;20047;-77
2022/05/18 02:06:30;;;;;;;9.52;6.13;;;;;;;17.40;75.77;101243.19;4936127;29;20441;-77
2022/05/18 02:08:56;;;;;;;7.65;6.03;;;;;;;17.35;75.98;101246.38;4936316;29;20056;-78
2022/05/18 02:11:23;;;;;;;10.07;5.68;;;;;;;17.29;76.14;101244.47;4939954;29;20126;-79
2022/05/18 02:14:02;;;;;;;8.85;5.70;;;;;;;17.24;76.59;101249.50;4940104;29;20052;-78
2022/05/18 02:16:30;;;;;;;11.75;6.03;;;;;;;17.19;76.72;101246.59;4940522;29;20058;-80
2022/05/18 02:18:56;;;;;;;11.13;6.60;;;;;;;17.14;76.95;101241.84;4942133;29;20130;-78
2022/05/18 02:21:23;;;;;;;10.38;6.20;;;;;;;17.10;77.21;101245.03;4940472;29;20417;-79
2022/05/18 02:23:49;;;;;;;8.43;5.88;;;;;;;17.14;77.15;101248.97;4942528;29;20186;-79
2022/05/18 02:26:18;;;;;;;10.32;6.97;;;;;;;17.03;77.58;101247.59;4942959;29;20048;-79
2022/05/18 02:28:45;;;;;;;8.80;6.05;;;;;;;17.00;77.66;101249.81;4942416;29;20087;-80
2022/05/18 02:31:13;;;;;;;7.80;6.30;;;;;;;16.95;77.86;101234.50;4944476;29;20197;-78
2022/05/18 02:33:42;;;;;;;10.05;6.70;;;;;;;16.90;78.26;101235.03;4944441;29;20091;-79
2022/05/18 02:36:10;;;;;;;10.27;6.18;;;;;;;16.88;78.43;101239.69;4944923;29;20107;-79
2022/05/18 02:38:38;;;;;;;10.32;6.50;;;;;;;16.86;78.11;101240.88;4940804;29;20167;-79
2022/05/18 02:41:05;;;;;;;8.82;6.38;;;;;;;16.84;78.40;101241.06;4941775;29;20048;-79
2022/05/18 02:43:37;;;;;;;7.70;5.75;;;;;;;16.82;78.64;101250.97;4942185;29;20055;-78
2022/05/18 02:46:05;;;;;;;9.48;6.40;;;;;;;16.82;78.83;101239.59;4945573;29;20087;-78
2022/05/18 02:48:32;;;;;;;8.80;6.07;;;;;;;16.82;78.49;101245.69;4946889;29;20448;-79
2022/05/18 02:51:00;;;;;;;8.75;6.18;;;;;;;16.80;78.91;101242.41;4945356;29;20106;-78
2022/05/18 02:53:27;;;;;;;11.98;7.38;;;;;;;16.75;78.96;101228.91;4943463;29;20106;-78
2022/05/18 02:56:08;;;;;;;9.15;6.68;;;;;;;16.74;79.12;101243.13;4938798;29;20302;-79
2022/05/18 02:58:37;;;;;;;9.13;6.72;;;;;;;16.74;79.10;101240.50;4940545;29;20588;-78
2022/05/18 03:01:05;;;;;;;12.18;6.70;;;;;;;16.74;79.13;101237.84;4942649;29;20058;-78
2022/05/18 03:03:32;;;;;;;8.38;6.05;;;;;;;16.69;79.33;101248.13;4947015;29;20139;-79
2022/05/18 03:06:00;;;;;;;9.85;6.50;;;;;;;16.68;79.54;101238.56;4944788;29;20138;-79
2022/05/18 03:08:27;;;;;;;8.35;6.57;;;;;;;16.69;79.23;101245.50;4943369;29;20131;-79
2022/05/18 03:10:53;;;;;;;8.63;5.90;;;;;;;16.66;79.48;101245.03;4943293;29;20170;-80
2022/05/18 03:13:20;;;;;;;9.98;6.57;;;;;;;16.59;79.66;101244.91;4941349;29;20451;-80
2022/05/18 03:15:47;;;;;;;11.25;6.38;;;;;;;16.62;79.84;101247.19;4939235;29;20066;-80
2022/05/18 03:18:14;;;;;;;9.93;6.47;;;;;;;16.56;80.01;101246.09;4939448;29;20080;-80
2022/05/18 03:23:36;;;;;;;8.77;6.95;;;;;;;16.57;79.92;101249.53;4942136;29;20128;-80
2022/05/18 03:26:05;;;;;;;8.88;6.40;;;;;;;16.55;79.85;101254.19;4942579;29;20142;-80
2022/05/18 03:28:31;;;;;;;9.25;6.45;;;;;;;16.53;80.04;101256.22;4940824;29;20142;-79
2022/05/18 03:30:58;;;;;;;10.48;6.90;;;;;;;16.50;80.09;101257.41;4940918;29;20083;-80
2022/05/18 03:33:24;;;;;;;13.55;7.40;;;;;;;16.49;80.30;101266.31;4941317;29;20079;-80
2022/05/18 03:35:51;;;;;;;15.18;7.18;;;;;;;16.48;80.29;101261.22;4941546;29;20108;-81
2022/05/18 03:38:19;;;;;;;9.52;6.60;;;;;;;16.50;80.16;101265.31;4942515;29;20637;-80
2022/05/18 03:40:47;;;;;;;9.50;6.75;;;;;;;16.54;80.15;101268.44;4945350;29;20115;-79
2022/05/18 03:43:14;;;;;;;10.00;6.88;;;;;;;16.54;79.88;101271.06;4939617;29;20127;-80
2022/05/18 03:45:41;;;;;;;9.45;6.88;;;;;;;16.57;79.77;101279.44;4938160;29;20483;-80
2022/05/18 03:48:11;;;;;;;9.70;6.85;;;;;;;16.57;79.91;101276.78;4942213;29;20055;-80
2022/05/18 03:50:39;;;;;;;9.48;6.68;;;;;;;16.57;79.71;101278.59;4943126;29;20051;-80
2022/05/18 03:53:06;;;;;;;9.30;6.93;;;;;;;16.62;79.81;101284.19;4943558;29;20138;-80
2022/05/18 03:55:33;;;;;;;9.75;7.20;;;;;;;16.69;79.58;101279.84;4943055;29;20107;-80
2022/05/18 03:58:01;;;;;;;9.07;6.60;;;;;;;16.68;79.57;101280.84;4941232;29;20052;-80
2022/05/18 04:00:28;;;;;;;10.38;7.15;;;;;;;16.72;79.49;101289.25;4941605;29;20587;-80
2022/05/18 04:02:54;;;;;;;9.48;6.70;;;;;;;16.87;78.96;101290.91;4940479;29;20054;-80
2022/05/18 04:05:22;;;;;;;10.43;6.80;;;;;;;17.13;77.64;101292.28;4939817;29;20485;-80
2022/05/18 04:07:48;;;;;;;7.97;6.82;;;;;;;17.31;77.00;101290.09;4939913;29;20051;-81
2022/05/18 04:10:16;;;;;;;8.10;6.80;;;;;;;17.38;76.61;101282.22;4940103;29;20586;-80
2022/05/18 04:12:43;;;;;;;13.48;7.07;;;;;;;17.42;76.28;101289.63;4943680;29;20048;-80
2022/05/18 04:15:16;;;;;;;12.02;6.82;;;;;;;17.48;75.96;101290.72;4943019;29;20115;-80
2022/05/18 04:17:43;;;;;;;12.57;6.93;;;;;;;17.56;75.62;101286.09;4943503;29;20087;-80
2022/05/18 04:20:11;;;;;;;12.00;7.07;;;;;;;17.76;75.27;101289.03;4943615;29;20154;-80
2022/05/18 04:22:38;;;;;;;12.23;6.60;;;;;;;18.27;73.47;101293.38;4943217;29;20058;-80
2022/05/18 04:25:05;;;;;;;8.80;6.22;;;;;;;18.38;72.41;101298.19;4943042;29;20115;-79
2022/05/18 04:27:32;;;;;;;12.32;6.85;;;;;;;18.17;73.14;101293.69;4942882;29;20130;-80
2022/05/18 04:29:59;;;;;;;11.25;6.85;;;;;;;18.40;72.42;101298.81;4942004;29;20132;-80
2022/05/18 04:32:27;;;;;;;14.25;6.50;;;;;;;18.21;73.40;101295.78;4942354;29;20127;-80
2022/05/18 04:34:53;;;;;;;8.73;6.65;;;;;;;18.27;73.12;101304.81;4942178;29;20083;-80
2022/05/18 04:37:20;;;;;;;12.65;6.90;;;;;;;18.23;74.14;101311.50;4942492;29;20083;-80
2022/05/18 04:39:47;;;;;;;11.35;6.18;;;;;;;18.45;73.19;101307.81;4943042;29;20581;-80
2022/05/18 04:42:14;;;;;;;10.65;6.32;;;;;;;18.45;72.72;101297.19;4943369;29;20047;-84
2022/05/18 04:44:43;;;;;;;9.60;6.50;;;;;;;18.37;73.94;101317.75;4942892;29;20063;-81
2022/05/18 04:47:10;;;;;;;9.25;6.70;;;;;;;18.45;73.52;101312.28;4942442;29;20059;-79
2022/05/18 04:49:38;;;;;;;10.43;6.00;;;;;;;18.76;72.39;101309.31;4940939;29;20329;-80
2022/05/18 04:52:07;;;;;;;14.32;7.43;;;;;;;18.99;71.22;101314.34;4943215;29;20087;-80
2022/05/18 04:54:35;;;;;;;9.40;6.78;;;;;;;19.18;70.64;101311.81;4943023;29;20039;-80
2022/05/18 04:57:02;;;;;;;8.35;6.38;;;;;;;19.05;70.86;101318.88;4942940;29;20131;-80
2022/05/18 04:59:30;;;;;;;16.48;7.13;;;;;;;18.95;71.12;101326.34;4942005;29;20465;-80
2022/05/18 05:05:24;;;;;;;12.85;7.35;;;;;;;18.80;72.33;101323.81;4967247;23;20106;-79
2022/05/18 05:11:05;;;;;;;11.45;6.70;;;;;;;19.05;71.69;101324.19;4954246;28;20122;-79
2022/05/18 05:16:50;;;;;;;7.38;6.35;;;;;;;20.49;66.82;101318.56;4935045;28;20059;-80
2022/05/18 05:22:37;;;;;;;9.57;6.18;;;;;;;22.04;61.33;101348.91;4959792;28;20055;-79
2022/05/18 05:25:24;;;;;;;11.88;6.10;;;;;;;21.88;61.46;101339.50;4946719;28;20090;-78
2022/05/18 05:27:55;;;;;;;10.60;5.78;;;;;;;22.06;61.27;101346.84;4940756;29;20055;-77
2022/05/18 05:30:28;;;;;;;11.52;6.03;;;;;;;22.48;60.36;101347.97;4939608;29;20485;-78
2022/05/18 05:33:01;;;;;;;14.23;5.88;;;;;;;22.56;60.25;101353.03;4939844;29;20134;-79
2022/05/18 05:35:41;;;;;;;;;;;;;;;;;;;;;
2022/05/18 05:38:09;;;;;;;10.82;6.30;;;;;;;23.66;56.42;101345.16;4949065;29;20582;-77
2022/05/18 05:40:36;;;;;;;15.32;6.25;;;;;;;23.21;56.97;101349.97;4952102;28;20043;-78
2022/05/18 05:43:06;;;;;;;8.55;5.88;;;;;;;22.91;58.51;101355.22;4948994;29;20074;-78
2022/05/18 05:45:33;;;;;;;9.90;5.82;;;;;;;23.89;55.93;101355.16;4947461;29;20426;-79
2022/05/18 05:47:59;;;;;;;7.22;5.80;;;;;;;24.09;54.55;101358.38;4955760;29;20130;-78
2022/05/18 05:50:27;;;;;;;7.60;5.43;;;;;;;23.85;55.40;101354.78;4952673;28;20078;-79
2022/05/18 05:52:53;;;;;;;11.80;5.57;;;;;;;23.80;55.71;101341.28;4947970;29;20044;-78
2022/05/18 05:55:21;;;;;;;28.52;7.15;;;;;;;24.22;54.61;101352.81;4942961;28;20052;-78
2022/05/18 05:57:48;;;;;;;13.30;5.93;;;;;;;23.77;54.86;101341.75;4938463;29;20082;-78
2022/05/18 06:00:16;;;;;;;14.48;5.82;;;;;;;24.36;53.85;101338.25;4939557;29;20111;-78
2022/05/18 06:02:44;;;;;;;29.55;7.10;;;;;;;24.71;52.37;101348.16;4939210;29;20099;-78
2022/05/18 06:05:11;;;;;;;17.42;6.03;;;;;;;24.29;53.40;101350.06;4938408;29;20083;-78
2022/05/18 06:07:37;;;;;;;10.10;5.65;;;;;;;25.08;51.14;101354.91;4938583;29;20148;-78
2022/05/18 06:10:04;;;;;;;12.77;5.70;;;;;;;25.73;49.74;101365.41;4937078;29;20054;-79
2022/05/18 06:12:32;;;;;;;11.00;5.57;;;;;;;25.07;51.49;101355.16;4938921;29;20479;-78
2022/05/18 06:15:01;;;;;;;9.60;5.30;;;;;;;24.54;52.09;101350.72;4938996;29;20108;-77
2022/05/18 06:17:28;;;;;;;9.18;5.53;;;;;;;24.39;52.99;101359.19;4939530;29;20047;-79
2022/05/18 06:19:55;;;;;;;13.52;5.75;;;;;;;25.46;50.22;101359.78;4939139;29;20153;-79
2022/05/18 06:22:22;;;;;;;9.90;5.78;;;;;;;26.03;49.45;101358.97;4939475;29;20091;-81
2022/05/18 06:24:51;;;;;;;12.43;5.75;;;;;;;24.78;51.30;101351.53;4940874;29;20094;-80
2022/05/18 06:27:18;;;;;;;11.48;5.50;;;;;;;25.15;50.95;101362.84;4940601;29;20498;-81
2022/05/18 06:29:47;;;;;;;13.95;6.00;;;;;;;24.78;51.41;101349.69;4951408;29;20471;-80
2022/05/18 06:32:14;;;;;;;6.78;5.20;;;;;;;24.79;51.15;101366.56;4955110;29;20051;-82
2022/05/18 06:34:41;;;;;;;14.05;5.82;;;;;;;24.53;51.18;101365.16;4961166;29;20047;-80
2022/05/18 06:37:07;;;;;;;9.10;5.10;;;;;;;24.93;50.97;101364.47;4954789;28;20370;-81
2022/05/18 06:39:34;;;;;;;14.30;5.60;;;;;;;25.22;50.06;101358.19;4952827;29;20107;-80
2022/05/18 06:42:01;;;;;;;16.20;5.88;;;;;;;25.87;48.81;101363.28;4957176;28;20126;-80
2022/05/18 06:44:28;;;;;;;13.73;5.50;;;;;;;25.82;48.91;101368.53;4956520;29;20055;-80
2022/05/18 06:46:58;;;;;;;14.82;5.82;;;;;;;26.49;47.30;101378.56;4952484;29;20082;-80
2022/05/18 06:49:26;;;;;;;11.10;5.30;;;;;;;26.44;46.78;101373.97;4957235;29;20138;-80
2022/05/18 06:51:56;;;;;;;15.13;5.40;;;;;;;25.71;47.72;101374.75;4959254;28;20058;-79
2022/05/18 06:54:23;;;;;;;9.18;5.53;;;;;;;25.97;47.81;101376.88;4958863;28;20232;-81
2022/05/18 06:56:49;;;;;;;11.23;5.72;;;;;;;25.54;48.88;101379.19;4962899;28;20139;-81
2022/05/18 06:59:16;;;;;;;10.48;5.63;;;;;;;26.50;47.63;101375.66;4960416;28;20054;-81
2022/05/18 07:01:43;;;;;;;9.20;5.47;;;;;;;26.28;47.51;101372.03;4959773;28;20043;-82
2022/05/18 07:04:12;;;;;;;12.88;5.40;;;;;;;26.55;46.54;101378.41;4958416;28;20121;-82
2022/05/18 07:06:42;;;;;;;7.25;4.65;;;;;;;27.06;46.39;101371.16;4955016;29;20101;-82
2022/05/18 07:09:13;;;;;;;9.10;4.85;;;;;;;27.73;44.18;101362.91;4952254;29;20031;-82
2022/05/18 07:11:41;;;;;;;11.98;5.20;;;;;;;27.13;44.42;101358.38;4953806;29;20058;-82
2022/05/18 07:14:09;;;;;;;8.82;4.82;;;;;;;26.83;45.75;101363.28;4964243;28;20047;-82
2022/05/18 07:16:36;;;;;;;12.88;5.18;;;;;;;27.11;44.66;101363.19;4956540;28;20047;-83
2022/05/18 07:19:03;;;;;;;9.35;4.68;;;;;;;26.22;46.14;101367.63;4961146;28;20070;-82
2022/05/18 07:21:32;;;;;;;7.70;5.13;;;;;;;26.72;44.95;101362.31;4958929;28;20107;-83
2022/05/18 07:27:28;;;;;;;15.48;5.40;;;;;;;27.06;44.68;101342.44;4945552;29;20507;-83
2022/05/18 07:30:04;;;;;;;8.02;5.20;;;;;;;26.95;45.41;101351.38;4950858;29;20124;-82
2022/05/18 07:32:37;;;;;;;9.50;5.25;;;;;;;26.54;45.90;101359.88;4943427;29;20090;-82
2022/05/18 07:35:11;;;;;;;6.88;5.22;;;;;;;26.99;45.45;101362.47;4961708;28;20091;-81
2022/05/18 07:37:39;;;;;;;12.05;5.40;;;;;;;27.72;43.58;101345.16;4960786;28;20097;-84
2022/05/18 07:40:08;;;;;;;15.38;5.10;;;;;;;26.84;46.21;101362.22;4960418;28;20130;-83
2022/05/18 07:42:35;;;;;;;10.90;5.05;;;;;;;27.36;44.59;101357.34;4960262;28;20043;-82
2022/05/18 07:45:02;;;;;;;9.07;5.07;;;;;;;27.31;44.69;101355.41;4954939;28;20074;-83
2022/05/18 07:47:29;;;;;;;14.52;6.00;;;;;;;27.73;43.73;101362.91;4961141;28;20430;-84
2022/05/18 07:49:56;;;;;;;7.05;5.03;;;;;;;27.61;43.66;101367.59;4960416;28;20146;-83
2022/05/18 07:52:23;;;;;;;8.35;4.90;;;;;;;28.15;43.96;101364.94;4960308;28;20110;-82
2022/05/18 07:54:51;;;;;;;9.90;5.28;;;;;;;27.34;43.88;101365.66;4960491;28;20082;-81
2022/05/18 07:57:18;;;;;;;9.48;4.70;;;;;;;27.39;43.07;101362.22;4961208;28;20071;-83
2022/05/18 07:59:45;;;;;;;8.20;4.70;;;;;;;27.90;41.81;101363.59;4961136;28;20051;-83
2022/05/18 08:02:12;;;;;;;10.07;4.65;;;;;;;27.95;43.03;101360.97;4954479;28;20115;-83
2022/05/18 08:04:38;;;;;;;14.23;5.18;;;;;;;28.50;42.38;101365.25;4941237;29;20047;-83
2022/05/18 08:07:05;;;;;;;11.70;5.07;;;;;;;28.70;41.73;101360.03;4945298;29;20047;-83
2022/05/18 08:15:05;;;;;;;12.48;5.15;;;;;;;28.30;41.89;101351.66;4948070;29;20094;-83
2022/05/18 08:15:06;;;;;;;14.75;5.20;;;;;;;28.95;41.21;101353.19;4951907;29;20077;-85
2022/05/18 08:17:33;;;;;;;10.60;5.15;;;;;;;28.62;41.31;101360.50;4959304;29;20074;-81
2022/05/18 08:20:03;;;;;;;18.58;5.28;;;;;;;28.55;41.95;101356.41;4945740;28;20075;-80
2022/05/18 08:22:30;;;;;;;11.15;5.22;;;;;;;29.02;40.62;101357.28;4947277;29;20051;-83
2022/05/18 08:24:56;;;;;;;6.63;4.65;;;;;;;29.77;39.64;101360.59;4988326;23;20052;-82
2022/05/18 08:27:24;;;;;;;10.77;5.22;;;;;;;30.12;39.08;101362.56;4956711;28;20065;-80
2022/05/18 08:29:51;;;;;;;10.00;5.00;;;;;;;29.26;40.06;101357.69;4956106;28;20463;-80
2022/05/18 08:32:17;;;;;;;6.93;4.53;;;;;;;29.68;38.82;101362.19;4957150;28;20115;-80
2022/05/18 08:34:44;;;;;;;9.48;4.30;;;;;;;30.32;38.10;101376.06;4958090;28;20122;-79
2022/05/18 08:37:12;;;;;;;8.13;5.03;;;;;;;29.77;38.30;101371.38;4958629;29;20062;-80
2022/05/18 08:39:39;;;;;;;8.35;4.43;;;;;;;29.84;40.29;101366.50;4950423;28;20077;-81
2022/05/18 08:42:06;;;;;;;13.95;4.85;;;;;;;28.96;39.04;101363.72;4957562;28;20082;-80
2022/05/18 08:44:36;;;;;;;10.60;5.38;;;;;;;29.33;40.72;101357.41;4949562;29;20127;-81
2022/05/18 08:47:17;;;;;;;12.57;4.93;;;;;;;29.40;40.14;101350.72;4956791;29;20111;-80
2022/05/18 08:49:55;;;;;;;7.03;4.63;;;;;;;28.52;40.73;101355.03;4957548;29;20062;-81
2022/05/18 08:52:39;;;;;;;7.88;4.78;;;;;;;29.04;41.08;101357.03;4961032;29;20113;-79
2022/05/18 08:55:45;;;;;;;11.15;4.88;;;;;;;29.41;39.39;101356.94;4960303;29;20051;-78
2022/05/18 08:58:15;;;;;;;24.63;5.82;;;;;;;28.81;41.09;101360.09;4966667;29;20063;-81
2022/05/18 09:00:46;;;;;;;13.15;5.05;;;;;;;29.61;39.40;101359.72;4976259;28;20047;-79
2022/05/18 09:12:18;;;;;;;9.18;5.45;;;;;;;29.02;39.82;101359.97;4961165;29;20058;-80
2022/05/18 09:14:53;;;;;;;7.40;4.65;;;;;;;29.99;39.34;101353.09;4959051;29;20056;-81
2022/05/18 09:17:43;;;;;;;19.02;5.25;;;;;;;29.45;39.22;101333.78;4941914;29;20060;-82
2022/05/18 09:20:56;;;;;;;11.85;4.80;;;;;;;28.83;39.88;101344.53;4941521;29;20055;-82
2022/05/18 09:27:30;;;;;;;19.00;5.28;;;;;;;29.30;38.53;101344.50;4934801;29;20051;-82
2022/05/18 09:30:18;;;;;;;7.72;5.40;;;;;;;29.73;39.39;101347.91;4941739;29;20138;-81
2022/05/18 09:37:22;;;;;;;6.65;4.30;;;;;;;29.06;38.71;101347.63;4881256;29;20207;-81
2022/05/18 09:43:22;;;;;;;11.90;4.55;;;;;;;29.03;38.36;101341.94;4936142;29;20091;-81
2022/05/18 09:45:57;;;;;;;16.10;4.78;;;;;;;28.88;38.83;101323.78;4936521;29;20056;-80
2022/05/18 09:49:04;;;;;;;10.80;4.72;;;;;;;29.76;39.27;101345.47;4937135;29;20052;-80
2022/05/18 09:51:40;;;;;;;12.73;5.53;;;;;;;29.47;38.77;101345.13;4935991;29;20055;-78
2022/05/18 09:54:09;;;;;;;14.77;5.70;;;;;;;29.15;39.99;101342.53;4937423;29;20103;-78
2022/05/18 09:56:42;;;;;;;9.40;5.00;;;;;;;29.74;38.69;101339.53;4937275;29;20103;-76
2022/05/18 09:59:14;;;;;;;10.27;4.93;;;;;;;29.15;39.31;101339.03;4938299;29;20047;-77
2022/05/18 10:10:04;;;;;;;6.85;4.47;;;;;;;30.33;35.88;101330.97;4938274;29;20062;-80
2022/05/18 10:12:39;;;;;;;16.40;4.90;;;;;;;30.23;36.69;101333.69;4939918;29;20047;-79
2022/05/18 10:15:10;;;;;;;9.13;4.70;;;;;;;30.81;36.63;101321.47;4938013;29;20099;-78
2022/05/18 10:17:46;;;;;;;7.03;4.40;;;;;;;30.31;36.70;101333.13;4939772;29;20576;-79
2022/05/18 10:20:23;;;;;;;11.45;4.75;;;;;;;29.83;38.36;101329.81;4938527;29;20158;-79
2022/05/18 10:22:51;;;;;;;5.60;4.30;;;;;;;29.56;38.72;101332.75;4937416;29;20062;-79
2022/05/18 10:25:26;;;;;;;12.65;4.57;;;;;;;29.39;37.83;101319.44;4939376;29;20590;-78
2022/05/18 10:27:55;;;;;;;7.32;4.50;;;;;;;29.15;37.91;101320.97;4925399;29;20463;-79
2022/05/18 10:30:28;;;;;;;11.90;5.32;;;;;;;30.18;36.26;101312.91;4929256;29;20435;-77
2022/05/18 10:32:58;;;;;;;9.13;4.30;;;;;;;29.29;36.02;101305.94;4929522;29;20091;-78
2022/05/18 10:35:33;;;;;;;7.72;4.40;;;;;;;29.88;35.43;101313.66;4949637;29;20091;-80
2022/05/18 10:38:01;;;;;;;9.55;4.45;;;;;;;30.56;34.81;101299.91;4946077;29;20067;-78
2022/05/18 10:40:28;;;;;;;9.73;4.50;;;;;;;30.60;33.36;101307.22;4947500;29;20075;-79
2022/05/18 10:43:17;;;;;;;10.23;5.05;;;;;;;30.39;32.71;101302.88;4945139;29;20048;-78
2022/05/18 10:45:54;;;;;;;8.90;4.30;;;;;;;30.54;32.84;101297.47;4946701;29;20090;-80
2022/05/18 10:48:23;;;;;;;6.18;4.20;;;;;;;30.82;33.44;101293.34;4949763;29;20126;-80
2022/05/18 10:51:00;;;;;;;7.45;4.20;;;;;;;30.50;31.56;101296.38;4940274;29;20141;-79
2022/05/18 10:53:33;;;;;;;8.05;4.10;;;;;;;29.48;32.19;101287.41;4943064;29;20047;-78
2022/05/18 10:56:05;;;;;;;13.93;4.40;;;;;;;29.74;32.58;101296.38;4947624;29;20055;-80
2022/05/18 10:58:36;;;;;;;7.20;3.90;;;;;;;30.03;32.36;101285.91;4949738;29;20048;-79
2022/05/18 11:01:09;;;;;;;7.97;3.57;;;;;;;30.04;29.43;101280.25;4948983;29;20071;-80
2022/05/18 11:42:09;;;;;;;7.03;4.15;;;;;;;30.06;31.34;101246.78;4954757;29;20138;-80
2022/05/18 11:45:05;;;;;;;8.93;3.78;;;;;;;29.89;31.68;101250.50;4959635;29;20043;-79
2022/05/18 11:59:09;;;;;;;8.23;4.07;;;;;;;30.73;32.42;101237.47;4819607;29;20122;-79
2022/05/18 12:06:08;;;;;;;6.68;4.13;;;;;;;30.99;31.65;101237.09;4767725;30;20113;-79
2022/05/18 12:22:47;;;;;;;7.15;4.28;;;;;;;30.39;31.55;101227.28;4802718;29;20145;-78
2022/05/18 12:25:25;;;;;;;7.60;4.10;;;;;;;30.32;30.58;101214.06;4851423;29;20219;-79
2022/05/18 12:28:03;;;;;;;8.00;4.00;;;;;;;30.35;31.65;101215.41;4898548;29;20403;-80
2022/05/18 12:30:46;;;;;;;7.00;4.25;;;;;;;30.10;32.08;101212.78;4953477;28;20482;-80
2022/05/18 12:33:21;;;;;;;5.22;4.10;;;;;;;30.19;31.88;101211.94;4975298;28;20055;-81
2022/05/18 12:36:03;;;;;;;6.40;4.13;;;;;;;30.65;31.57;101225.34;4973014;28;20075;-81
2022/05/18 12:38:37;;;;;;;11.65;4.60;;;;;;;30.82;30.87;101223.09;4966334;28;20051;-82
2022/05/18 12:41:07;;;;;;;8.77;3.97;;;;;;;30.43;31.76;101217.56;4953342;29;20137;-79
2022/05/18 12:43:39;;;;;;;6.03;4.60;;;;;;;30.20;32.10;101218.97;4966305;28;20046;-80
2022/05/18 12:46:11;;;;;;;10.27;4.68;;;;;;;30.24;32.42;101213.84;4963546;28;20517;-79
2022/05/18 12:48:44;;;;;;;19.02;4.50;;;;;;;30.21;31.78;101220.59;4963741;28;20079;-80
2022/05/18 12:51:32;;;;;;;6.97;3.90;;;;;;;30.36;32.08;101219.72;4966704;28;20095;-81
2022/05/18 12:54:13;;;;;;;11.38;4.38;;;;;;;30.56;31.99;101213.47;4974650;28;20087;-82
2022/05/18 12:57:16;;;;;;;5.80;4.30;;;;;;;30.71;31.06;101207.25;4978394;28;20086;-86
2022/05/18 13:00:22;;;;;;;11.02;4.50;;;;;;;31.25;30.88;101224.25;4948016;28;20047;-83
2022/05/18 13:02:55;;;;;;;6.13;4.40;;;;;;;30.63;32.10;101209.44;4951128;28;20086;-80
2022/05/18 13:05:46;;;;;;;5.43;3.85;;;;;;;30.32;31.85;101210.56;4977454;28;20066;-80
2022/05/18 13:09:07;;;;;;;10.43;4.18;;;;;;;31.09;31.23;101211.91;4958191;29;20055;-80
2022/05/18 13:11:46;;;;;;;6.72;4.05;;;;;;;31.38;31.46;101211.22;4982046;28;20058;-81
2022/05/18 13:14:25;;;;;;;5.75;3.83;;;;;;;31.00;31.33;101208.97;4967640;28;20058;-81
2022/05/18 13:17:14;;;;;;;9.10;4.05;;;;;;;31.33;32.14;101207.47;4965344;28;20134;-80
2022/05/18 13:19:46;;;;;;;7.63;4.30;;;;;;;31.39;31.62;101199.31;4960591;28;20058;-80
2022/05/18 13:22:26;;;;;;;6.03;4.32;;;;;;;30.90;31.72;101200.91;4962554;28;20106;-79
2022/05/18 13:24:58;;;;;;;9.48;4.20;;;;;;;30.95;31.38;101197.38;4962413;29;20130;-81
2022/05/18 13:27:45;;;;;;;6.22;4.38;;;;;;;30.85;31.56;101200.94;4970413;28;20312;-80
2022/05/18 13:30:52;;;;;;;11.15;4.68;;;;;;;30.50;31.29;101201.06;4970945;29;20055;-79
2022/05/18 13:37:16;;;;;;;8.35;4.53;;;;;;;30.77;32.58;101189.91;4900893;29;20057;-78
2022/05/18 13:43:24;;;;;;;6.32;4.20;;;;;;;30.67;32.08;101183.47;4903926;29;20060;-80
2022/05/18 13:45:59;;;;;;;8.65;4.60;;;;;;;30.90;31.80;101183.91;4917693;29;20050;-80
2022/05/18 13:48:28;;;;;;;25.00;5.03;;;;;;;30.67;31.87;101180.78;4917198;29;20063;-83
2022/05/18 13:51:09;;;;;;;9.23;4.00;;;;;;;30.41;32.58;101175.69;4952031;28;20055;-82